sensor_id;sensor_type;location;lat;lon;timestamp;P1;durP1;ratioP1;P2;durP2;ratioP2
4812;SDS011;2420;51.202;8.698;2022-12-07T00:01:28;12.77;;;7.80;;
4812;SDS011;2420;51.202;8.698;2022-12-07T00:03:56;11.70;;;7.20;;
4812;SDS011;2420;51.202;8.698;2022-12-07T00:06:29;12.82;;;7.28;;
4812;SDS011;2420;51.202;8.698;2022-12-07T00:09:05;11.48;;;6.85;;
4812;SDS011;2420;51.202;8.698;2022-12-07T00:11:32;12.50;;;6.68;;
4812;SDS011;2420;51.202;8.698;2022-12-07T00:13:59;11.77;;;7.13;;
4812;SDS011;2420;51.202;8.698;2022-12-07T00:16:27;10.55;;;7.05;;
4812;SDS011;2420;51.202;8.698;2022-12-07T00:18:55;14.30;;;6.90;;
4812;SDS011;2420;51.202;8.698;2022-12-07T00:21:21;16.40;;;6.90;;
4812;SDS011;2420;51.202;8.698;2022-12-07T00:23:49;11.45;;;6.45;;
4812;SDS011;2420;51.202;8.698;2022-12-07T00:26:16;11.00;;;6.55;;
4812;SDS011;2420;51.202;8.698;2022-12-07T00:28:45;13.70;;;6.47;;
4812;SDS011;2420;51.202;8.698;2022-12-07T00:31:12;11.00;;;5.85;;
4812;SDS011;2420;51.202;8.698;2022-12-07T00:33:38;8.93;;;5.30;;
4812;SDS011;2420;51.202;8.698;2022-12-07T00:36:05;7.82;;;4.97;;
4812;SDS011;2420;51.202;8.698;2022-12-07T00:38:34;19.58;;;9.98;;
4812;SDS011;2420;51.202;8.698;2022-12-07T00:41:02;27.80;;;12.88;;
4812;SDS011;2420;51.202;8.698;2022-12-07T00:43:30;19.70;;;10.27;;
4812;SDS011;2420;51.202;8.698;2022-12-07T00:45:56;15.35;;;8.15;;
4812;SDS011;2420;51.202;8.698;2022-12-07T00:48:22;12.15;;;7.38;;
4812;SDS011;2420;51.202;8.698;2022-12-07T00:50:48;9.73;;;5.93;;
4812;SDS011;2420;51.202;8.698;2022-12-07T00:53:14;8.35;;;5.13;;
4812;SDS011;2420;51.202;8.698;2022-12-07T00:55:40;7.18;;;5.00;;
4812;SDS011;2420;51.202;8.698;2022-12-07T00:58:06;10.10;;;5.00;;
4812;SDS011;2420;51.202;8.698;2022-12-07T01:00:32;7.55;;;4.80;;
4812;SDS011;2420;51.202;8.698;2022-12-07T01:02:59;7.32;;;4.43;;
4812;SDS011;2420;51.202;8.698;2022-12-07T01:05:25;7.32;;;4.50;;
4812;SDS011;2420;51.202;8.698;2022-12-07T01:07:51;10.65;;;5.50;;
4812;SDS011;2420;51.202;8.698;2022-12-07T01:10:17;9.75;;;4.45;;
4812;SDS011;2420;51.202;8.698;2022-12-07T01:12:43;5.75;;;3.50;;
4812;SDS011;2420;51.202;8.698;2022-12-07T01:15:08;6.32;;;3.67;;
4812;SDS011;2420;51.202;8.698;2022-12-07T01:17:34;6.30;;;3.30;;
4812;SDS011;2420;51.202;8.698;2022-12-07T01:20:00;6.38;;;3.95;;
4812;SDS011;2420;51.202;8.698;2022-12-07T01:22:26;7.72;;;4.78;;
4812;SDS011;2420;51.202;8.698;2022-12-07T01:24:52;5.65;;;3.95;;
4812;SDS011;2420;51.202;8.698;2022-12-07T01:27:17;6.32;;;3.95;;
4812;SDS011;2420;51.202;8.698;2022-12-07T01:29:43;5.22;;;3.78;;
4812;SDS011;2420;51.202;8.698;2022-12-07T01:32:09;6.25;;;3.85;;
4812;SDS011;2420;51.202;8.698;2022-12-07T01:34:34;5.30;;;3.75;;
4812;SDS011;2420;51.202;8.698;2022-12-07T01:37:00;5.97;;;4.00;;
4812;SDS011;2420;51.202;8.698;2022-12-07T01:39:25;6.05;;;3.67;;
4812;SDS011;2420;51.202;8.698;2022-12-07T01:41:51;7.43;;;4.70;;
4812;SDS011;2420;51.202;8.698;2022-12-07T01:44:24;6.82;;;4.15;;
4812;SDS011;2420;51.202;8.698;2022-12-07T01:52:49;7.45;;;4.43;;
4812;SDS011;2420;51.202;8.698;2022-12-07T01:54:58;7.85;;;4.80;;
4812;SDS011;2420;51.202;8.698;2022-12-07T01:57:26;8.93;;;5.30;;
4812;SDS011;2420;51.202;8.698;2022-12-07T01:59:52;7.53;;;5.20;;
4812;SDS011;2420;51.202;8.698;2022-12-07T02:02:31;7.70;;;5.10;;
4812;SDS011;2420;51.202;8.698;2022-12-07T02:04:59;12.35;;;5.15;;
4812;SDS011;2420;51.202;8.698;2022-12-07T02:07:26;8.38;;;5.43;;
4812;SDS011;2420;51.202;8.698;2022-12-07T02:09:53;13.55;;;6.80;;
4812;SDS011;2420;51.202;8.698;2022-12-07T02:12:19;13.52;;;6.93;;
4812;SDS011;2420;51.202;8.698;2022-12-07T02:14:46;12.43;;;7.65;;
4812;SDS011;2420;51.202;8.698;2022-12-07T02:17:25;16.70;;;9.15;;
4812;SDS011;2420;51.202;8.698;2022-12-07T02:30:54;12.68;;;7.68;;
4812;SDS011;2420;51.202;8.698;2022-12-07T02:33:37;16.00;;;8.68;;
4812;SDS011;2420;51.202;8.698;2022-12-07T02:36:28;12.90;;;7.22;;
4812;SDS011;2420;51.202;8.698;2022-12-07T02:39:01;17.33;;;8.23;;
4812;SDS011;2420;51.202;8.698;2022-12-07T02:41:40;13.60;;;7.70;;
4812;SDS011;2420;51.202;8.698;2022-12-07T02:44:13;13.45;;;7.40;;
4812;SDS011;2420;51.202;8.698;2022-12-07T02:46:43;11.95;;;7.05;;
4812;SDS011;2420;51.202;8.698;2022-12-07T02:49:13;11.43;;;6.45;;
4812;SDS011;2420;51.202;8.698;2022-12-07T02:51:43;11.40;;;6.85;;
4812;SDS011;2420;51.202;8.698;2022-12-07T02:54:12;10.48;;;6.68;;
4812;SDS011;2420;51.202;8.698;2022-12-07T03:01:45;12.20;;;7.18;;
4812;SDS011;2420;51.202;8.698;2022-12-07T03:15:46;8.80;;;5.68;;
4812;SDS011;2420;51.202;8.698;2022-12-07T03:18:28;9.40;;;5.53;;
4812;SDS011;2420;51.202;8.698;2022-12-07T03:20:58;8.50;;;5.63;;
4812;SDS011;2420;51.202;8.698;2022-12-07T03:23:28;5.60;;;4.03;;
4812;SDS011;2420;51.202;8.698;2022-12-07T03:25:58;6.80;;;4.28;;
4812;SDS011;2420;51.202;8.698;2022-12-07T03:28:26;7.32;;;4.53;;
4812;SDS011;2420;51.202;8.698;2022-12-07T03:30:58;8.43;;;3.97;;
4812;SDS011;2420;51.202;8.698;2022-12-07T03:33:31;7.00;;;3.50;;
4812;SDS011;2420;51.202;8.698;2022-12-07T03:36:08;6.28;;;3.17;;
4812;SDS011;2420;51.202;8.698;2022-12-07T03:38:40;4.90;;;3.03;;
4812;SDS011;2420;51.202;8.698;2022-12-07T03:41:22;8.38;;;3.88;;
4812;SDS011;2420;51.202;8.698;2022-12-07T03:43:54;7.13;;;3.90;;
4812;SDS011;2420;51.202;8.698;2022-12-07T03:51:49;5.60;;;3.63;;
4812;SDS011;2420;51.202;8.698;2022-12-07T03:57:10;13.05;;;4.82;;
4812;SDS011;2420;51.202;8.698;2022-12-07T03:59:37;7.70;;;4.35;;
4812;SDS011;2420;51.202;8.698;2022-12-07T04:02:05;8.55;;;4.88;;
4812;SDS011;2420;51.202;8.698;2022-12-07T04:04:31;9.15;;;5.13;;
4812;SDS011;2420;51.202;8.698;2022-12-07T04:06:58;9.98;;;5.07;;
4812;SDS011;2420;51.202;8.698;2022-12-07T04:09:24;8.65;;;5.30;;
4812;SDS011;2420;51.202;8.698;2022-12-07T04:11:50;10.15;;;5.18;;
4812;SDS011;2420;51.202;8.698;2022-12-07T04:14:16;8.18;;;5.20;;
4812;SDS011;2420;51.202;8.698;2022-12-07T04:16:45;8.20;;;5.07;;
4812;SDS011;2420;51.202;8.698;2022-12-07T04:19:12;8.85;;;5.63;;
4812;SDS011;2420;51.202;8.698;2022-12-07T04:21:38;8.65;;;5.30;;
4812;SDS011;2420;51.202;8.698;2022-12-07T04:24:04;8.63;;;4.95;;
4812;SDS011;2420;51.202;8.698;2022-12-07T04:26:30;7.78;;;5.03;;
4812;SDS011;2420;51.202;8.698;2022-12-07T04:28:56;9.02;;;4.93;;
4812;SDS011;2420;51.202;8.698;2022-12-07T04:31:21;8.05;;;5.10;;
4812;SDS011;2420;51.202;8.698;2022-12-07T04:33:47;7.25;;;3.80;;
4812;SDS011;2420;51.202;8.698;2022-12-07T04:36:12;7.78;;;4.28;;
4812;SDS011;2420;51.202;8.698;2022-12-07T04:38:38;6.18;;;3.58;;
4812;SDS011;2420;51.202;8.698;2022-12-07T04:41:04;6.47;;;3.40;;
4812;SDS011;2420;51.202;8.698;2022-12-07T04:43:34;6.82;;;3.42;;
4812;SDS011;2420;51.202;8.698;2022-12-07T04:46:00;5.65;;;3.50;;
4812;SDS011;2420;51.202;8.698;2022-12-07T04:48:26;5.65;;;3.47;;
4812;SDS011;2420;51.202;8.698;2022-12-07T04:50:52;7.72;;;4.03;;
4812;SDS011;2420;51.202;8.698;2022-12-07T04:53:18;7.25;;;4.13;;
4812;SDS011;2420;51.202;8.698;2022-12-07T04:55:44;9.07;;;4.07;;
4812;SDS011;2420;51.202;8.698;2022-12-07T04:58:10;10.43;;;5.10;;
4812;SDS011;2420;51.202;8.698;2022-12-07T05:00:36;12.93;;;5.35;;
4812;SDS011;2420;51.202;8.698;2022-12-07T05:03:02;13.18;;;4.72;;
4812;SDS011;2420;51.202;8.698;2022-12-07T05:05:28;10.63;;;5.30;;
4812;SDS011;2420;51.202;8.698;2022-12-07T05:07:53;10.60;;;5.18;;
4812;SDS011;2420;51.202;8.698;2022-12-07T05:10:19;16.10;;;6.07;;
4812;SDS011;2420;51.202;8.698;2022-12-07T05:12:44;10.35;;;5.45;;
4812;SDS011;2420;51.202;8.698;2022-12-07T05:15:10;10.30;;;5.10;;
4812;SDS011;2420;51.202;8.698;2022-12-07T05:17:37;10.77;;;5.38;;
4812;SDS011;2420;51.202;8.698;2022-12-07T05:20:03;10.88;;;5.72;;
4812;SDS011;2420;51.202;8.698;2022-12-07T05:22:29;12.85;;;5.90;;
4812;SDS011;2420;51.202;8.698;2022-12-07T05:24:54;8.88;;;4.93;;
4812;SDS011;2420;51.202;8.698;2022-12-07T05:27:20;9.32;;;5.40;;
4812;SDS011;2420;51.202;8.698;2022-12-07T05:29:46;11.15;;;5.50;;
4812;SDS011;2420;51.202;8.698;2022-12-07T05:32:11;10.35;;;5.13;;
4812;SDS011;2420;51.202;8.698;2022-12-07T05:34:37;14.18;;;5.40;;
4812;SDS011;2420;51.202;8.698;2022-12-07T05:37:02;10.52;;;5.80;;
4812;SDS011;2420;51.202;8.698;2022-12-07T05:39:28;10.65;;;4.88;;
4812;SDS011;2420;51.202;8.698;2022-12-07T05:41:54;13.98;;;5.85;;
4812;SDS011;2420;51.202;8.698;2022-12-07T05:44:38;9.85;;;5.57;;
4812;SDS011;2420;51.202;8.698;2022-12-07T05:47:08;13.18;;;6.05;;
4812;SDS011;2420;51.202;8.698;2022-12-07T05:49:34;11.93;;;5.35;;
4812;SDS011;2420;51.202;8.698;2022-12-07T05:51:59;12.10;;;6.07;;
4812;SDS011;2420;51.202;8.698;2022-12-07T05:54:25;11.50;;;5.03;;
4812;SDS011;2420;51.202;8.698;2022-12-07T05:56:50;11.60;;;5.28;;
4812;SDS011;2420;51.202;8.698;2022-12-07T05:59:16;10.68;;;5.05;;
4812;SDS011;2420;51.202;8.698;2022-12-07T06:02:07;11.10;;;6.00;;
4812;SDS011;2420;51.202;8.698;2022-12-07T06:04:35;11.48;;;5.40;;
4812;SDS011;2420;51.202;8.698;2022-12-07T06:07:02;8.60;;;4.97;;
4812;SDS011;2420;51.202;8.698;2022-12-07T06:09:28;8.13;;;4.57;;
4812;SDS011;2420;51.202;8.698;2022-12-07T06:11:54;8.95;;;4.38;;
4812;SDS011;2420;51.202;8.698;2022-12-07T06:14:40;7.90;;;4.03;;
4812;SDS011;2420;51.202;8.698;2022-12-07T06:17:06;6.70;;;3.83;;
4812;SDS011;2420;51.202;8.698;2022-12-07T06:19:31;7.38;;;4.03;;
4812;SDS011;2420;51.202;8.698;2022-12-07T06:21:57;6.38;;;4.20;;
4812;SDS011;2420;51.202;8.698;2022-12-07T06:24:23;7.60;;;4.22;;
4812;SDS011;2420;51.202;8.698;2022-12-07T06:26:49;7.35;;;4.25;;
4812;SDS011;2420;51.202;8.698;2022-12-07T06:29:14;8.95;;;4.72;;
4812;SDS011;2420;51.202;8.698;2022-12-07T06:31:41;8.80;;;4.15;;
4812;SDS011;2420;51.202;8.698;2022-12-07T06:34:08;8.00;;;4.00;;
4812;SDS011;2420;51.202;8.698;2022-12-07T06:36:36;7.30;;;4.13;;
4812;SDS011;2420;51.202;8.698;2022-12-07T06:39:02;8.68;;;3.70;;
4812;SDS011;2420;51.202;8.698;2022-12-07T06:41:28;6.18;;;3.80;;
4812;SDS011;2420;51.202;8.698;2022-12-07T06:43:54;6.55;;;3.45;;
4812;SDS011;2420;51.202;8.698;2022-12-07T06:46:20;7.20;;;3.35;;
4812;SDS011;2420;51.202;8.698;2022-12-07T06:48:45;10.00;;;3.70;;
4812;SDS011;2420;51.202;8.698;2022-12-07T06:51:11;6.00;;;3.03;;
4812;SDS011;2420;51.202;8.698;2022-12-07T06:53:36;7.53;;;2.95;;
4812;SDS011;2420;51.202;8.698;2022-12-07T06:56:03;4.60;;;3.03;;
4812;SDS011;2420;51.202;8.698;2022-12-07T06:58:29;6.68;;;3.08;;
4812;SDS011;2420;51.202;8.698;2022-12-07T07:00:55;5.60;;;2.60;;
4812;SDS011;2420;51.202;8.698;2022-12-07T07:03:21;8.18;;;3.03;;
4812;SDS011;2420;51.202;8.698;2022-12-07T07:05:46;4.97;;;2.80;;
4812;SDS011;2420;51.202;8.698;2022-12-07T07:08:12;4.22;;;2.97;;
4812;SDS011;2420;51.202;8.698;2022-12-07T07:10:38;8.15;;;2.85;;
4812;SDS011;2420;51.202;8.698;2022-12-07T07:13:04;8.15;;;3.40;;
4812;SDS011;2420;51.202;8.698;2022-12-07T07:15:30;4.72;;;2.80;;
4812;SDS011;2420;51.202;8.698;2022-12-07T07:17:57;6.25;;;3.15;;
4812;SDS011;2420;51.202;8.698;2022-12-07T07:20:22;5.85;;;2.90;;
4812;SDS011;2420;51.202;8.698;2022-12-07T07:22:48;10.43;;;3.08;;
4812;SDS011;2420;51.202;8.698;2022-12-07T07:25:14;7.50;;;2.97;;
4812;SDS011;2420;51.202;8.698;2022-12-07T07:27:40;4.60;;;2.67;;
4812;SDS011;2420;51.202;8.698;2022-12-07T07:30:06;5.25;;;2.53;;
4812;SDS011;2420;51.202;8.698;2022-12-07T07:32:32;6.63;;;3.63;;
4812;SDS011;2420;51.202;8.698;2022-12-07T07:34:58;10.68;;;4.30;;
4812;SDS011;2420;51.202;8.698;2022-12-07T07:37:24;9.45;;;4.20;;
4812;SDS011;2420;51.202;8.698;2022-12-07T07:39:50;11.10;;;4.20;;
4812;SDS011;2420;51.202;8.698;2022-12-07T07:42:15;11.73;;;3.92;;
4812;SDS011;2420;51.202;8.698;2022-12-07T07:44:41;9.13;;;3.67;;
4812;SDS011;2420;51.202;8.698;2022-12-07T07:47:06;13.15;;;4.05;;
4812;SDS011;2420;51.202;8.698;2022-12-07T07:49:32;11.10;;;3.92;;
4812;SDS011;2420;51.202;8.698;2022-12-07T07:51:58;6.30;;;3.50;;
4812;SDS011;2420;51.202;8.698;2022-12-07T07:54:23;7.47;;;3.47;;
4812;SDS011;2420;51.202;8.698;2022-12-07T07:56:49;7.93;;;3.92;;
4812;SDS011;2420;51.202;8.698;2022-12-07T07:59:14;10.80;;;3.75;;
4812;SDS011;2420;51.202;8.698;2022-12-07T08:01:40;12.48;;;4.95;;
4812;SDS011;2420;51.202;8.698;2022-12-07T08:04:06;10.40;;;4.55;;
4812;SDS011;2420;51.202;8.698;2022-12-07T08:06:32;7.43;;;4.30;;
4812;SDS011;2420;51.202;8.698;2022-12-07T08:08:57;9.02;;;3.88;;
4812;SDS011;2420;51.202;8.698;2022-12-07T08:11:24;11.68;;;4.20;;
4812;SDS011;2420;51.202;8.698;2022-12-07T08:13:49;5.30;;;3.90;;
4812;SDS011;2420;51.202;8.698;2022-12-07T08:16:15;5.60;;;3.40;;
4812;SDS011;2420;51.202;8.698;2022-12-07T08:18:41;8.52;;;3.65;;
4812;SDS011;2420;51.202;8.698;2022-12-07T08:21:09;6.07;;;3.42;;
4812;SDS011;2420;51.202;8.698;2022-12-07T08:23:37;8.50;;;3.55;;
4812;SDS011;2420;51.202;8.698;2022-12-07T08:26:03;7.25;;;3.90;;
4812;SDS011;2420;51.202;8.698;2022-12-07T08:28:30;7.55;;;3.63;;
4812;SDS011;2420;51.202;8.698;2022-12-07T08:31:00;9.23;;;3.53;;
4812;SDS011;2420;51.202;8.698;2022-12-07T08:33:26;15.15;;;6.35;;
4812;SDS011;2420;51.202;8.698;2022-12-07T08:35:52;10.15;;;5.03;;
4812;SDS011;2420;51.202;8.698;2022-12-07T08:38:17;7.05;;;4.35;;
4812;SDS011;2420;51.202;8.698;2022-12-07T08:40:43;9.82;;;4.60;;
4812;SDS011;2420;51.202;8.698;2022-12-07T08:43:09;6.50;;;3.80;;
4812;SDS011;2420;51.202;8.698;2022-12-07T08:45:34;7.25;;;3.80;;
4812;SDS011;2420;51.202;8.698;2022-12-07T08:48:02;6.97;;;4.20;;
4812;SDS011;2420;51.202;8.698;2022-12-07T08:50:32;7.00;;;3.63;;
4812;SDS011;2420;51.202;8.698;2022-12-07T08:52:59;9.02;;;3.65;;
4812;SDS011;2420;51.202;8.698;2022-12-07T08:55:25;6.07;;;3.22;;
4812;SDS011;2420;51.202;8.698;2022-12-07T08:57:52;6.30;;;3.22;;
4812;SDS011;2420;51.202;8.698;2022-12-07T09:00:18;4.90;;;3.25;;
4812;SDS011;2420;51.202;8.698;2022-12-07T09:02:44;7.72;;;3.42;;
4812;SDS011;2420;51.202;8.698;2022-12-07T09:05:11;6.63;;;4.38;;
4812;SDS011;2420;51.202;8.698;2022-12-07T09:07:39;12.50;;;4.68;;
4812;SDS011;2420;51.202;8.698;2022-12-07T09:10:06;8.07;;;4.28;;
4812;SDS011;2420;51.202;8.698;2022-12-07T09:12:32;8.40;;;4.53;;
4812;SDS011;2420;51.202;8.698;2022-12-07T09:14:57;7.18;;;3.85;;
4812;SDS011;2420;51.202;8.698;2022-12-07T09:17:23;9.75;;;4.43;;
4812;SDS011;2420;51.202;8.698;2022-12-07T09:19:49;8.45;;;4.47;;
4812;SDS011;2420;51.202;8.698;2022-12-07T09:22:14;11.82;;;4.43;;
4812;SDS011;2420;51.202;8.698;2022-12-07T09:24:40;5.93;;;3.83;;
4812;SDS011;2420;51.202;8.698;2022-12-07T09:27:05;7.22;;;3.58;;
4812;SDS011;2420;51.202;8.698;2022-12-07T09:29:31;10.35;;;4.07;;
4812;SDS011;2420;51.202;8.698;2022-12-07T09:31:57;8.32;;;3.65;;
4812;SDS011;2420;51.202;8.698;2022-12-07T09:34:22;6.85;;;3.30;;
4812;SDS011;2420;51.202;8.698;2022-12-07T09:36:48;8.18;;;3.65;;
4812;SDS011;2420;51.202;8.698;2022-12-07T09:39:14;10.20;;;4.07;;
4812;SDS011;2420;51.202;8.698;2022-12-07T09:41:40;6.25;;;3.28;;
4812;SDS011;2420;51.202;8.698;2022-12-07T09:44:12;7.22;;;3.60;;
4812;SDS011;2420;51.202;8.698;2022-12-07T09:46:40;11.93;;;3.60;;
4812;SDS011;2420;51.202;8.698;2022-12-07T09:49:18;10.80;;;3.30;;
4812;SDS011;2420;51.202;8.698;2022-12-07T09:51:46;5.80;;;3.38;;
4812;SDS011;2420;51.202;8.698;2022-12-07T09:54:13;6.65;;;3.40;;
4812;SDS011;2420;51.202;8.698;2022-12-07T09:56:40;10.48;;;4.07;;
4812;SDS011;2420;51.202;8.698;2022-12-07T09:59:06;7.88;;;4.20;;
4812;SDS011;2420;51.202;8.698;2022-12-07T10:01:37;8.15;;;3.95;;
4812;SDS011;2420;51.202;8.698;2022-12-07T10:04:11;7.32;;;4.25;;
4812;SDS011;2420;51.202;8.698;2022-12-07T10:06:46;13.25;;;4.07;;
4812;SDS011;2420;51.202;8.698;2022-12-07T10:09:13;8.68;;;3.15;;
4812;SDS011;2420;51.202;8.698;2022-12-07T10:12:03;7.28;;;3.15;;
4812;SDS011;2420;51.202;8.698;2022-12-07T10:14:35;10.65;;;2.90;;
4812;SDS011;2420;51.202;8.698;2022-12-07T10:17:02;6.65;;;3.50;;
4812;SDS011;2420;51.202;8.698;2022-12-07T10:19:48;13.48;;;3.60;;
4812;SDS011;2420;51.202;8.698;2022-12-07T10:22:14;9.40;;;3.08;;
4812;SDS011;2420;51.202;8.698;2022-12-07T10:24:42;7.57;;;3.70;;
4812;SDS011;2420;51.202;8.698;2022-12-07T10:29:47;8.27;;;3.08;;
4812;SDS011;2420;51.202;8.698;2022-12-07T10:34:40;6.13;;;3.08;;
4812;SDS011;2420;51.202;8.698;2022-12-07T10:42:15;8.50;;;3.55;;
4812;SDS011;2420;51.202;8.698;2022-12-07T10:44:41;8.60;;;3.20;;
4812;SDS011;2420;51.202;8.698;2022-12-07T10:47:11;9.60;;;3.05;;
4812;SDS011;2420;51.202;8.698;2022-12-07T10:52:24;5.25;;;2.63;;
4812;SDS011;2420;51.202;8.698;2022-12-07T10:55:26;8.05;;;3.33;;
4812;SDS011;2420;51.202;8.698;2022-12-07T11:00:43;6.18;;;3.58;;
4812;SDS011;2420;51.202;8.698;2022-12-07T11:03:18;8.48;;;3.42;;
4812;SDS011;2420;51.202;8.698;2022-12-07T11:05:56;6.60;;;2.90;;
4812;SDS011;2420;51.202;8.698;2022-12-07T11:11:35;5.68;;;2.33;;
4812;SDS011;2420;51.202;8.698;2022-12-07T11:14:12;5.80;;;2.78;;
4812;SDS011;2420;51.202;8.698;2022-12-07T11:16:50;6.45;;;2.78;;
4812;SDS011;2420;51.202;8.698;2022-12-07T11:22:33;6.75;;;2.58;;
4812;SDS011;2420;51.202;8.698;2022-12-07T11:25:56;4.35;;;2.40;;
4812;SDS011;2420;51.202;8.698;2022-12-07T11:33:46;10.50;;;4.13;;
4812;SDS011;2420;51.202;8.698;2022-12-07T11:39:02;6.55;;;3.38;;
4812;SDS011;2420;51.202;8.698;2022-12-07T11:41:38;4.90;;;3.50;;
4812;SDS011;2420;51.202;8.698;2022-12-07T11:47:05;5.85;;;2.60;;
4812;SDS011;2420;51.202;8.698;2022-12-07T11:49:47;5.38;;;3.10;;
4812;SDS011;2420;51.202;8.698;2022-12-07T11:52:43;9.13;;;3.08;;
4812;SDS011;2420;51.202;8.698;2022-12-07T12:03:40;7.00;;;2.97;;
4812;SDS011;2420;51.202;8.698;2022-12-07T12:06:11;5.07;;;2.92;;
4812;SDS011;2420;51.202;8.698;2022-12-07T12:08:43;6.82;;;3.28;;
4812;SDS011;2420;51.202;8.698;2022-12-07T12:14:36;8.82;;;3.38;;
4812;SDS011;2420;51.202;8.698;2022-12-07T12:22:55;7.60;;;3.65;;
4812;SDS011;2420;51.202;8.698;2022-12-07T12:25:27;7.80;;;3.55;;
4812;SDS011;2420;51.202;8.698;2022-12-07T12:27:59;5.10;;;3.13;;
4812;SDS011;2420;51.202;8.698;2022-12-07T12:30:33;8.90;;;3.55;;
4812;SDS011;2420;51.202;8.698;2022-12-07T12:33:32;4.72;;;2.90;;
4812;SDS011;2420;51.202;8.698;2022-12-07T12:44:01;4.82;;;2.53;;
4812;SDS011;2420;51.202;8.698;2022-12-07T12:54:25;7.57;;;3.20;;
4812;SDS011;2420;51.202;8.698;2022-12-07T13:13:00;8.20;;;4.15;;
4812;SDS011;2420;51.202;8.698;2022-12-07T13:15:47;5.57;;;3.20;;
4812;SDS011;2420;51.202;8.698;2022-12-07T13:21:00;6.97;;;3.58;;
4812;SDS011;2420;51.202;8.698;2022-12-07T13:23:32;6.45;;;3.90;;
4812;SDS011;2420;51.202;8.698;2022-12-07T13:28:44;9.93;;;4.32;;
4812;SDS011;2420;51.202;8.698;2022-12-07T13:39:34;9.02;;;4.78;;
4812;SDS011;2420;51.202;8.698;2022-12-07T13:42:06;13.43;;;5.10;;
4812;SDS011;2420;51.202;8.698;2022-12-07T13:44:40;9.48;;;4.30;;
4812;SDS011;2420;51.202;8.698;2022-12-07T13:47:10;14.43;;;6.25;;
4812;SDS011;2420;51.202;8.698;2022-12-07T13:49:51;18.45;;;8.65;;
4812;SDS011;2420;51.202;8.698;2022-12-07T13:52:25;11.20;;;5.88;;
4812;SDS011;2420;51.202;8.698;2022-12-07T13:55:01;9.13;;;5.18;;
4812;SDS011;2420;51.202;8.698;2022-12-07T13:57:39;8.32;;;4.53;;
4812;SDS011;2420;51.202;8.698;2022-12-07T14:00:06;7.50;;;3.90;;
4812;SDS011;2420;51.202;8.698;2022-12-07T14:02:57;8.98;;;3.83;;
4812;SDS011;2420;51.202;8.698;2022-12-07T14:05:28;8.80;;;3.90;;
4812;SDS011;2420;51.202;8.698;2022-12-07T14:12:53;7.80;;;3.97;;
4812;SDS011;2420;51.202;8.698;2022-12-07T14:15:20;8.85;;;4.05;;
4812;SDS011;2420;51.202;8.698;2022-12-07T14:17:52;13.15;;;4.70;;
4812;SDS011;2420;51.202;8.698;2022-12-07T14:23:22;12.02;;;4.45;;
4812;SDS011;2420;51.202;8.698;2022-12-07T14:25:51;7.15;;;4.40;;
4812;SDS011;2420;51.202;8.698;2022-12-07T14:28:27;7.38;;;4.20;;
4812;SDS011;2420;51.202;8.698;2022-12-07T14:30:58;10.43;;;4.13;;
4812;SDS011;2420;51.202;8.698;2022-12-07T14:33:25;8.18;;;4.20;;
4812;SDS011;2420;51.202;8.698;2022-12-07T14:35:51;14.95;;;6.50;;
4812;SDS011;2420;51.202;8.698;2022-12-07T14:38:24;18.52;;;6.15;;
4812;SDS011;2420;51.202;8.698;2022-12-07T14:40:51;10.82;;;4.55;;
4812;SDS011;2420;51.202;8.698;2022-12-07T14:43:18;6.43;;;3.92;;
4812;SDS011;2420;51.202;8.698;2022-12-07T14:45:44;5.70;;;3.90;;
4812;SDS011;2420;51.202;8.698;2022-12-07T14:48:12;12.77;;;4.47;;
4812;SDS011;2420;51.202;8.698;2022-12-07T14:50:59;13.13;;;3.97;;
4812;SDS011;2420;51.202;8.698;2022-12-07T14:53:27;7.78;;;4.18;;
4812;SDS011;2420;51.202;8.698;2022-12-07T14:55:58;5.90;;;3.95;;
4812;SDS011;2420;51.202;8.698;2022-12-07T14:58:23;7.15;;;4.22;;
4812;SDS011;2420;51.202;8.698;2022-12-07T15:00:49;6.30;;;3.90;;
4812;SDS011;2420;51.202;8.698;2022-12-07T15:03:15;11.48;;;4.32;;
4812;SDS011;2420;51.202;8.698;2022-12-07T15:05:40;7.10;;;4.20;;
4812;SDS011;2420;51.202;8.698;2022-12-07T15:08:08;10.57;;;3.95;;
4812;SDS011;2420;51.202;8.698;2022-12-07T15:10:34;7.35;;;3.60;;
4812;SDS011;2420;51.202;8.698;2022-12-07T15:13:03;8.60;;;3.83;;
4812;SDS011;2420;51.202;8.698;2022-12-07T15:15:48;8.30;;;4.03;;
4812;SDS011;2420;51.202;8.698;2022-12-07T15:18:15;7.40;;;3.95;;
4812;SDS011;2420;51.202;8.698;2022-12-07T15:20:41;11.57;;;4.75;;
4812;SDS011;2420;51.202;8.698;2022-12-07T15:23:07;13.43;;;4.20;;
4812;SDS011;2420;51.202;8.698;2022-12-07T15:25:32;9.23;;;4.28;;
4812;SDS011;2420;51.202;8.698;2022-12-07T15:27:58;10.75;;;5.00;;
4812;SDS011;2420;51.202;8.698;2022-12-07T15:30:24;11.82;;;5.10;;
4812;SDS011;2420;51.202;8.698;2022-12-07T15:32:52;6.93;;;4.40;;
4812;SDS011;2420;51.202;8.698;2022-12-07T15:35:18;11.73;;;4.88;;
4812;SDS011;2420;51.202;8.698;2022-12-07T15:37:45;11.70;;;5.28;;
4812;SDS011;2420;51.202;8.698;2022-12-07T15:40:11;9.75;;;4.72;;
4812;SDS011;2420;51.202;8.698;2022-12-07T15:42:38;10.57;;;4.30;;
4812;SDS011;2420;51.202;8.698;2022-12-07T15:45:04;8.27;;;4.47;;
4812;SDS011;2420;51.202;8.698;2022-12-07T15:47:31;9.15;;;4.78;;
4812;SDS011;2420;51.202;8.698;2022-12-07T15:50:00;9.93;;;4.70;;
4812;SDS011;2420;51.202;8.698;2022-12-07T15:52:26;9.02;;;4.80;;
4812;SDS011;2420;51.202;8.698;2022-12-07T15:54:52;6.72;;;4.80;;
4812;SDS011;2420;51.202;8.698;2022-12-07T15:57:18;7.85;;;4.30;;
4812;SDS011;2420;51.202;8.698;2022-12-07T15:59:43;12.27;;;5.13;;
4812;SDS011;2420;51.202;8.698;2022-12-07T16:02:09;8.80;;;5.05;;
4812;SDS011;2420;51.202;8.698;2022-12-07T16:04:35;7.53;;;4.70;;
4812;SDS011;2420;51.202;8.698;2022-12-07T16:07:01;6.03;;;3.75;;
4812;SDS011;2420;51.202;8.698;2022-12-07T16:09:26;8.95;;;3.97;;
4812;SDS011;2420;51.202;8.698;2022-12-07T16:11:52;10.45;;;4.20;;
4812;SDS011;2420;51.202;8.698;2022-12-07T16:14:17;11.25;;;4.53;;
4812;SDS011;2420;51.202;8.698;2022-12-07T16:16:43;7.63;;;4.68;;
4812;SDS011;2420;51.202;8.698;2022-12-07T16:19:08;9.13;;;5.05;;
4812;SDS011;2420;51.202;8.698;2022-12-07T16:21:35;9.10;;;5.85;;
4812;SDS011;2420;51.202;8.698;2022-12-07T16:24:01;9.32;;;4.95;;
4812;SDS011;2420;51.202;8.698;2022-12-07T16:26:27;10.13;;;5.53;;
4812;SDS011;2420;51.202;8.698;2022-12-07T16:28:53;21.50;;;8.55;;
4812;SDS011;2420;51.202;8.698;2022-12-07T16:31:21;12.52;;;6.25;;
4812;SDS011;2420;51.202;8.698;2022-12-07T16:33:48;7.15;;;4.82;;
4812;SDS011;2420;51.202;8.698;2022-12-07T16:36:14;7.95;;;4.93;;
4812;SDS011;2420;51.202;8.698;2022-12-07T16:38:41;11.43;;;6.10;;
4812;SDS011;2420;51.202;8.698;2022-12-07T16:41:07;17.70;;;7.60;;
4812;SDS011;2420;51.202;8.698;2022-12-07T16:43:34;11.48;;;5.93;;
4812;SDS011;2420;51.202;8.698;2022-12-07T16:46:00;11.57;;;6.50;;
4812;SDS011;2420;51.202;8.698;2022-12-07T16:48:26;11.13;;;5.65;;
4812;SDS011;2420;51.202;8.698;2022-12-07T16:50:52;10.93;;;6.75;;
4812;SDS011;2420;51.202;8.698;2022-12-07T16:53:21;13.70;;;7.68;;
4812;SDS011;2420;51.202;8.698;2022-12-07T16:55:47;11.95;;;7.05;;
4812;SDS011;2420;51.202;8.698;2022-12-07T16:58:14;14.20;;;7.68;;
4812;SDS011;2420;51.202;8.698;2022-12-07T17:00:41;18.70;;;8.82;;
4812;SDS011;2420;51.202;8.698;2022-12-07T17:03:07;14.77;;;7.82;;
4812;SDS011;2420;51.202;8.698;2022-12-07T17:05:36;18.77;;;8.93;;
4812;SDS011;2420;51.202;8.698;2022-12-07T17:08:06;13.20;;;7.15;;
4812;SDS011;2420;51.202;8.698;2022-12-07T17:10:33;11.60;;;7.68;;
4812;SDS011;2420;51.202;8.698;2022-12-07T17:13:04;19.52;;;9.65;;
4812;SDS011;2420;51.202;8.698;2022-12-07T17:16:03;22.50;;;11.48;;
4812;SDS011;2420;51.202;8.698;2022-12-07T17:18:31;44.67;;;16.35;;
4812;SDS011;2420;51.202;8.698;2022-12-07T17:21:05;48.83;;;17.50;;
4812;SDS011;2420;51.202;8.698;2022-12-07T17:23:32;39.05;;;14.63;;
4812;SDS011;2420;51.202;8.698;2022-12-07T17:26:11;15.73;;;6.65;;
4812;SDS011;2420;51.202;8.698;2022-12-07T17:28:42;13.10;;;6.22;;
4812;SDS011;2420;51.202;8.698;2022-12-07T17:31:08;10.07;;;6.00;;
4812;SDS011;2420;51.202;8.698;2022-12-07T17:33:36;18.92;;;6.70;;
4812;SDS011;2420;51.202;8.698;2022-12-07T17:36:09;11.32;;;6.20;;
4812;SDS011;2420;51.202;8.698;2022-12-07T17:38:38;10.40;;;5.40;;
4812;SDS011;2420;51.202;8.698;2022-12-07T17:41:11;12.57;;;5.47;;
4812;SDS011;2420;51.202;8.698;2022-12-07T17:44:02;9.38;;;4.75;;
4812;SDS011;2420;51.202;8.698;2022-12-07T17:46:29;6.10;;;3.90;;